Time;durP1;ratioP1;P1;durP2;ratioP2;P2;SDS_P1;SDS_P2;PMS_P1;PMS_P2;Temp;Humidity;BMP_temperature;BMP_pressure;BME280_temperature;BME280_humidity;BME280_pressure;Samples;Min_cycle;Max_cycle;Signal;HPM_P1;HPM_P2
2024/01/07 00:00:19;;;;;;;21.80;14.00;;;;;;;;;;5030495;28;20514;-86
2024/01/07 00:03:08;;;;;;;20.20;12.80;;;;;;;;;;5024650;28;20485;-86
2024/01/07 00:06:14;;;;;;;18.80;11.70;;;;;;;;;;5022957;28;20544;-89
2024/01/07 00:08:55;;;;;;;22.13;14.57;;;;;;;;;;5023152;28;20579;-86
2024/01/07 00:11:27;;;;;;;22.90;13.17;;;;;;;;;;5019924;28;20464;-86
2024/01/07 00:14:13;;;;;;;23.37;13.23;;;;;;;;;;5010591;28;20469;-85
2024/01/07 00:16:41;;;;;;;21.80;13.13;;;;;;;;;;5021966;28;20496;-87
2024/01/07 00:19:14;;;;;;;23.70;12.27;;;;;;;;;;5007744;28;20458;-89
2024/01/07 00:21:43;;;;;;;20.73;12.70;;;;;;;;;;5010728;28;20464;-87
2024/01/07 00:24:13;;;;;;;19.80;11.93;;;;;;;;;;5011198;28;20470;-84
2024/01/07 00:26:52;;;;;;;17.97;11.87;;;;;;;;;;5009276;28;20586;-86
2024/01/07 00:29:23;;;;;;;18.30;10.10;;;;;;;;;;5024474;28;20489;-87
2024/01/07 00:31:51;;;;;;;20.60;11.17;;;;;;;;;;5027008;28;20550;-87
2024/01/07 00:34:54;;;;;;;15.87;10.03;;;;;;;;;;5016904;28;20445;-87
2024/01/07 00:37:29;;;;;;;15.97;10.20;;;;;;;;;;5027533;28;20469;-87
2024/01/07 00:40:00;;;;;;;15.33;9.50;;;;;;;;;;5011938;28;20493;-85
2024/01/07 00:42:37;;;;;;;16.00;10.33;;;;;;;;;;5012716;28;20461;-87
2024/01/07 00:45:14;;;;;;;14.20;9.47;;;;;;;;;;5026746;28;20664;-87
2024/01/07 00:47:45;;;;;;;11.10;8.00;;;;;;;;;;5031852;28;20507;-85
2024/01/07 00:50:25;;;;;;;13.70;9.50;;;;;;;;;;5024113;28;20541;-86
2024/01/07 00:52:56;;;;;;;13.43;8.60;;;;;;;;;;5005938;28;20504;-85
2024/01/07 00:55:42;;;;;;;14.33;8.93;;;;;;;;;;5028074;28;20453;-85
2024/01/07 00:58:17;;;;;;;14.20;9.30;;;;;;;;;;5025069;28;20553;-84
2024/01/07 01:00:50;;;;;;;16.00;9.40;;;;;;;;;;5010316;28;20469;-85
2024/01/07 01:03:27;;;;;;;12.87;9.60;;;;;;;;;;5012040;28;20461;-87
2024/01/07 01:05:54;;;;;;;13.60;8.90;;;;;;;;;;5016142;28;20480;-86
2024/01/07 01:08:42;;;;;;;13.70;8.60;;;;;;;;;;5016988;28;20465;-86
2024/01/07 01:11:24;;;;;;;13.07;8.63;;;;;;;;;;5025797;28;20469;-83
2024/01/07 01:14:12;;;;;;;;;;;;;;;;;;;;;
2024/01/07 01:16:46;;;;;;;12.10;8.83;;;;;;;;;;5022708;28;21032;-86
2024/01/07 01:19:23;;;;;;;10.93;7.27;;;;;;;;;;5024407;28;20476;-84
2024/01/07 01:22:06;;;;;;;13.90;8.90;;;;;;;;;;5023028;28;20473;-85
2024/01/07 01:24:34;;;;;;;12.00;8.20;;;;;;;;;;5018181;28;20905;-85
2024/01/07 01:27:23;;;;;;;11.37;7.70;;;;;;;;;;5001361;28;20473;-85
2024/01/07 01:29:57;;;;;;;12.13;7.83;;;;;;;;;;5008642;28;21148;-85
2024/01/07 01:32:44;;;;;;;;;;;;;;;;;;;;;
2024/01/07 01:39:03;;;;;;;10.97;7.70;;;;;;;;;;5042700;28;20504;-87
2024/01/07 01:41:34;;;;;;;13.07;8.20;;;;;;;;;;5037128;28;20450;-85
2024/01/07 01:44:07;;;;;;;8.70;7.10;;;;;;;;;;5050343;28;20445;-87
2024/01/07 01:49:45;;;;;;;8.77;6.80;;;;;;;;;;5045429;28;20455;-86
2024/01/07 01:52:26;;;;;;;9.20;7.70;;;;;;;;;;5035258;28;20481;-86
2024/01/07 01:55:02;;;;;;;11.07;7.73;;;;;;;;;;5027101;28;20529;-87
2024/01/07 01:57:46;;;;;;;10.73;7.20;;;;;;;;;;5024315;28;20489;-83
2024/01/07 02:00:33;;;;;;;9.97;7.53;;;;;;;;;;5032219;28;20456;-85
2024/01/07 02:03:37;;;;;;;9.90;6.70;;;;;;;;;;5025746;28;20476;-83
2024/01/07 02:06:08;;;;;;;9.60;6.80;;;;;;;;;;5031560;28;20475;-90
2024/01/07 02:08:42;;;;;;;10.30;7.90;;;;;;;;;;5023096;28;20450;-85
2024/01/07 02:11:21;;;;;;;9.80;6.93;;;;;;;;;;5036945;28;20486;-84
2024/01/07 02:13:57;;;;;;;12.97;8.33;;;;;;;;;;5029436;28;20466;-86
2024/01/07 02:16:46;;;;;;;12.53;7.53;;;;;;;;;;5025448;28;20460;-89
2024/01/07 02:19:42;;;;;;;9.83;7.30;;;;;;;;;;5029574;28;20463;-86
2024/01/07 02:22:26;;;;;;;10.87;6.83;;;;;;;;;;5016056;28;20468;-87
2024/01/07 02:24:58;;;;;;;12.63;6.37;;;;;;;;;;5010295;28;20534;-86
2024/01/07 02:27:26;;;;;;;9.40;6.60;;;;;;;;;;5027353;28;20484;-86
2024/01/07 02:29:58;;;;;;;11.10;7.50;;;;;;;;;;5012143;28;20894;-87
2024/01/07 02:32:38;;;;;;;8.97;6.80;;;;;;;;;;5007366;28;20458;-86
2024/01/07 02:35:13;;;;;;;8.33;6.60;;;;;;;;;;5012725;28;20445;-87
2024/01/07 02:37:59;;;;;;;7.93;7.07;;;;;;;;;;5010904;28;20481;-85
2024/01/07 02:40:42;;;;;;;;;;;;;;;;;;;;;
2024/01/07 02:43:20;;;;;;;10.30;6.83;;;;;;;;;;5028875;28;20458;-85
2024/01/07 02:45:51;;;;;;;10.63;7.50;;;;;;;;;;5015304;28;20465;-86
2024/01/07 02:48:33;;;;;;;11.23;7.80;;;;;;;;;;5008712;28;20491;-85
2024/01/07 02:51:32;;;;;;;12.00;8.07;;;;;;;;;;5023700;28;20667;-87
2024/01/07 02:54:15;;;;;;;11.10;8.30;;;;;;;;;;5020115;28;20456;-85
2024/01/07 02:57:07;;;;;;;13.07;8.90;;;;;;;;;;5012383;28;20474;-85
2024/01/07 02:59:43;;;;;;;13.53;9.23;;;;;;;;;;5026898;28;20810;-86
2024/01/07 03:02:24;;;;;;;13.67;8.63;;;;;;;;;;5008674;28;20457;-86
2024/01/07 03:05:00;;;;;;;14.07;9.57;;;;;;;;;;5007654;28;20537;-88
2024/01/07 03:08:02;;;;;;;13.30;9.60;;;;;;;;;;5024680;28;20535;-87
2024/01/07 03:10:41;;;;;;;13.07;9.27;;;;;;;;;;4997296;28;20488;-85
2024/01/07 03:13:18;;;;;;;17.23;10.03;;;;;;;;;;5007354;28;20502;-87
2024/01/07 03:15:56;;;;;;;14.87;9.60;;;;;;;;;;5009622;28;20470;-87
2024/01/07 03:18:48;;;;;;;;;;;;;;;;;;;;;
2024/01/07 03:21:38;;;;;;;12.90;8.83;;;;;;;;;;5018816;28;20449;-87
2024/01/07 03:24:08;;;;;;;13.53;9.77;;;;;;;;;;5009228;28;21268;-86
2024/01/07 03:44:32;;;;;;;13.17;9.20;;;;;;;;;;4912013;28;20461;-85
2024/01/07 07:46:05;;;;;;;12.70;9.07;;;;;;;;;;4997083;28;20597;-84
2024/01/07 08:06:47;;;;;;;10.97;8.77;;;;;;;;;;4869537;29;20451;-85
2024/01/07 08:10:00;;;;;;;;;;;;;;;;;;;;;
2024/01/07 08:13:15;;;;;;;12.70;9.13;;;;;;;;;;4849544;29;20535;-84
2024/01/07 08:16:08;;;;;;;11.37;9.33;;;;;;;;;;4836335;29;20524;-87
2024/01/07 08:19:26;;;;;;;9.93;8.27;;;;;;;;;;4839396;29;20543;-85
2024/01/07 08:23:07;;;;;;;;;;;;;;;;;;;;;
2024/01/07 08:27:03;;;;;;;11.37;8.33;;;;;;;;;;4911656;29;20523;-87
2024/01/07 08:30:09;;;;;;;15.20;9.00;;;;;;;;;;4867933;29;20443;-85
2024/01/07 08:39:20;;;;;;;;;;;;;;;;;;;;;
2024/01/07 08:42:20;;;;;;;11.50;8.60;;;;;;;;;;5039302;28;20451;-85
2024/01/07 08:48:56;;;;;;;11.00;8.63;;;;;;;;;;5030556;28;20438;-85
2024/01/07 08:55:10;;;;;;;;;;;;;;;;;;;;;
2024/01/07 08:58:06;;;;;;;11.73;9.37;;;;;;;;;;5014191;28;20458;-84
2024/01/07 09:05:05;;;;;;;11.53;9.17;;;;;;;;;;5002850;28;21028;-85
2024/01/07 09:42:02;;;;;;;16.20;8.83;;;;;;;;;;5030342;28;20458;-87
2024/01/07 09:49:02;;;;;;;15.53;9.40;;;;;;;;;;4914663;29;20470;-86
2024/01/07 09:55:56;;;;;;;12.37;8.20;;;;;;;;;;4881955;29;20461;-86
2024/01/07 09:58:31;;;;;;;7.37;6.10;;;;;;;;;;4892115;29;20518;-83
2024/01/07 10:01:21;;;;;;;8.63;6.93;;;;;;;;;;4861042;29;20460;-86
2024/01/07 10:04:12;;;;;;;7.97;6.00;;;;;;;;;;4949045;28;20492;-88
2024/01/07 10:07:42;;;;;;;7.13;6.40;;;;;;;;;;4943294;28;20458;-88
2024/01/07 10:10:29;;;;;;;7.10;5.60;;;;;;;;;;4956345;28;20486;-86
2024/01/07 10:13:30;;;;;;;6.47;5.77;;;;;;;;;;4968338;28;20488;-87
2024/01/07 10:16:14;;;;;;;6.40;5.53;;;;;;;;;;4966295;28;21089;-86
2024/01/07 10:19:01;;;;;;;8.50;6.53;;;;;;;;;;4975967;28;20444;-85
2024/01/07 10:22:02;;;;;;;6.37;5.60;;;;;;;;;;4989389;28;20458;-87
2024/01/07 10:24:48;;;;;;;6.37;5.00;;;;;;;;;;5027448;28;20559;-86
2024/01/07 10:30:27;;;;;;;7.30;5.70;;;;;;;;;;5037678;28;20533;-85
2024/01/07 10:33:13;;;;;;;6.50;5.70;;;;;;;;;;5027601;28;20549;-86
2024/01/07 10:35:58;;;;;;;8.67;6.57;;;;;;;;;;5027413;28;22034;-87
2024/01/07 10:38:33;;;;;;;7.00;6.03;;;;;;;;;;5020953;28;20511;-86
2024/01/07 10:41:23;;;;;;;7.27;6.40;;;;;;;;;;5031599;28;20542;-86
2024/01/07 10:43:56;;;;;;;9.83;7.70;;;;;;;;;;5039562;28;20456;-87
2024/01/07 10:47:05;;;;;;;8.83;5.87;;;;;;;;;;5054238;28;20516;-86
2024/01/07 10:49:43;;;;;;;8.40;7.47;;;;;;;;;;5028814;28;20495;-87
2024/01/07 10:52:29;;;;;;;11.23;8.33;;;;;;;;;;5025009;28;20465;-88
2024/01/07 10:55:21;;;;;;;10.70;7.90;;;;;;;;;;5022536;28;20473;-85
2024/01/07 10:58:46;;;;;;;24.63;16.57;;;;;;;;;;5038792;28;20548;-87
2024/01/07 11:01:42;;;;;;;;;;;;;;;;;;;;;
2024/01/07 11:04:51;;;;;;;10.17;8.10;;;;;;;;;;5023505;28;20740;-85
2024/01/07 11:08:09;;;;;;;10.60;9.13;;;;;;;;;;5026166;28;20499;-86
2024/01/07 11:11:25;;;;;;;11.37;8.60;;;;;;;;;;4973490;28;20474;-86
2024/01/07 11:14:32;;;;;;;13.63;10.40;;;;;;;;;;4983212;28;20526;-85
2024/01/07 11:17:08;;;;;;;11.43;8.53;;;;;;;;;;5048310;28;20476;-87
2024/01/07 11:20:01;;;;;;;11.20;8.80;;;;;;;;;;5053361;28;20494;-87
2024/01/07 11:26:02;;;;;;;16.13;9.90;;;;;;;;;;4982223;28;20510;-85
2024/01/07 11:28:57;;;;;;;13.10;9.50;;;;;;;;;;4986806;28;20488;-85
2024/01/07 11:31:56;;;;;;;12.70;9.93;;;;;;;;;;4962652;28;20491;-86
2024/01/07 11:34:53;;;;;;;10.87;8.77;;;;;;;;;;4975793;28;21210;-83
2024/01/07 11:37:29;;;;;;;11.60;8.30;;;;;;;;;;4984603;28;20476;-86
2024/01/07 11:40:11;;;;;;;11.93;9.37;;;;;;;;;;5001798;28;20497;-88
2024/01/07 11:42:48;;;;;;;9.60;8.60;;;;;;;;;;4993349;28;20462;-89
2024/01/07 11:45:50;;;;;;;14.30;9.53;;;;;;;;;;4981902;28;20459;-85
2024/01/07 11:48:21;;;;;;;10.97;8.83;;;;;;;;;;4971352;28;20599;-86
2024/01/07 11:50:59;;;;;;;12.27;9.70;;;;;;;;;;5029841;23;20482;-86
2024/01/07 11:53:26;;;;;;;16.90;9.73;;;;;;;;;;5026980;28;20467;-84
2024/01/07 11:56:02;;;;;;;12.23;9.53;;;;;;;;;;5026534;28;20460;-85
2024/01/07 11:58:59;;;;;;;14.83;10.37;;;;;;;;;;5006757;28;20494;-86
2024/01/07 12:02:06;;;;;;;11.27;9.20;;;;;;;;;;4945690;28;20449;-84
2024/01/07 12:04:44;;;;;;;10.63;8.83;;;;;;;;;;4943026;28;20489;-88
2024/01/07 12:07:29;;;;;;;13.40;9.30;;;;;;;;;;4956876;28;20473;-85
2024/01/07 12:10:04;;;;;;;13.67;9.90;;;;;;;;;;4957277;28;20593;-87
2024/01/07 12:12:50;;;;;;;12.50;9.60;;;;;;;;;;4956214;28;20463;-85
2024/01/07 12:15:28;;;;;;;;;;;;;;;;;;;;;
2024/01/07 12:18:31;;;;;;;13.03;9.20;;;;;;;;;;4938379;28;20572;-87
2024/01/07 12:21:38;;;;;;;12.43;9.43;;;;;;;;;;4947445;28;20462;-88
2024/01/07 12:24:27;;;;;;;9.40;7.87;;;;;;;;;;4936006;28;20447;-85
2024/01/07 12:27:09;;;;;;;10.80;8.60;;;;;;;;;;4948188;28;20492;-86
2024/01/07 12:29:50;;;;;;;10.63;8.73;;;;;;;;;;4946793;28;20534;-86
2024/01/07 12:32:38;;;;;;;11.23;8.60;;;;;;;;;;4947417;28;20583;-88
2024/01/07 12:35:10;;;;;;;11.87;8.77;;;;;;;;;;4953647;28;20536;-88
2024/01/07 12:37:49;;;;;;;9.97;8.83;;;;;;;;;;4948646;28;20482;-89
2024/01/07 12:41:10;;;;;;;15.00;9.87;;;;;;;;;;5014176;28;20458;-86
2024/01/07 12:43:53;;;;;;;11.00;8.73;;;;;;;;;;4993867;28;20475;-87
2024/01/07 12:46:26;;;;;;;10.37;7.03;;;;;;;;;;5017705;28;20490;-86
2024/01/07 12:49:00;;;;;;;14.13;8.33;;;;;;;;;;5003122;28;20512;-87
2024/01/07 12:51:39;;;;;;;8.27;7.37;;;;;;;;;;5017441;28;20560;-86
2024/01/07 12:54:11;;;;;;;8.23;7.37;;;;;;;;;;5018961;28;20449;-90
2024/01/07 12:56:58;;;;;;;11.20;7.47;;;;;;;;;;5003508;28;20489;-85
2024/01/07 12:59:29;;;;;;;10.80;7.53;;;;;;;;;;5018964;28;20453;-86
2024/01/07 13:02:04;;;;;;;10.70;7.20;;;;;;;;;;5017085;28;20579;-86
2024/01/07 13:04:34;;;;;;;11.03;7.93;;;;;;;;;;5019183;28;20458;-86
2024/01/07 13:07:31;;;;;;;9.40;8.40;;;;;;;;;;5015680;28;20596;-86
2024/01/07 13:10:11;;;;;;;6.63;5.53;;;;;;;;;;5018870;28;20454;-85
2024/01/07 13:13:03;;;;;;;9.30;7.73;;;;;;;;;;5019464;28;20582;-85
2024/01/07 13:16:02;;;;;;;9.27;6.40;;;;;;;;;;5005042;28;20497;-85
2024/01/07 13:18:55;;;;;;;7.60;5.47;;;;;;;;;;4994843;28;20541;-85
2024/01/07 13:21:33;;;;;;;8.57;6.87;;;;;;;;;;5016889;28;20486;-85
2024/01/07 13:24:22;;;;;;;13.60;6.90;;;;;;;;;;5018434;28;20455;-85
2024/01/07 13:27:23;;;;;;;4.87;4.37;;;;;;;;;;5021919;28;20504;-86
2024/01/07 13:30:36;;;;;;;;;;;;;;;;;;;;;
2024/01/07 13:33:50;;;;;;;8.93;5.17;;;;;;;;;;5018266;28;20453;-85
2024/01/07 13:39:30;;;;;;;7.50;4.60;;;;;;;;;;5031320;28;20460;-86
2024/01/07 13:42:04;;;;;;;6.00;5.40;;;;;;;;;;5036744;28;20880;-86
2024/01/07 13:44:53;;;;;;;5.70;5.10;;;;;;;;;;5019523;28;20501;-87
2024/01/07 13:47:24;;;;;;;6.70;4.03;;;;;;;;;;5013259;28;20470;-86
2024/01/07 13:50:09;;;;;;;5.23;4.30;;;;;;;;;;5007627;28;20492;-87
2024/01/07 13:52:51;;;;;;;6.90;4.80;;;;;;;;;;5025641;28;20519;-85
2024/01/07 13:55:46;;;;;;;5.57;4.20;;;;;;;;;;5022564;28;20495;-86
2024/01/07 13:58:43;;;;;;;6.63;5.80;;;;;;;;;;5022320;28;20465;-87
2024/01/07 14:01:18;;;;;;;5.30;4.80;;;;;;;;;;5027126;28;20506;-85
2024/01/07 14:03:56;;;;;;;5.33;4.80;;;;;;;;;;5026850;28;20458;-87
2024/01/07 14:06:34;;;;;;;5.60;5.10;;;;;;;;;;5011623;28;20541;-84
2024/01/07 14:09:16;;;;;;;5.60;5.10;;;;;;;;;;5031502;28;20856;-87
2024/01/07 14:11:53;;;;;;;5.93;5.33;;;;;;;;;;5012714;28;20556;-84
2024/01/07 14:14:23;;;;;;;6.83;5.67;;;;;;;;;;5013754;28;20647;-87
2024/01/07 14:16:52;;;;;;;6.10;4.80;;;;;;;;;;5014670;28;20481;-84
2024/01/07 14:19:43;;;;;;;5.37;4.87;;;;;;;;;;5026753;28;20466;-87
2024/01/07 14:22:22;;;;;;;4.50;4.10;;;;;;;;;;5008599;28;20457;-86
2024/01/07 14:25:14;;;;;;;5.13;4.57;;;;;;;;;;5005630;28;20454;-85
2024/01/07 14:27:57;;;;;;;4.27;3.80;;;;;;;;;;5024513;28;20470;-86
2024/01/07 14:30:33;;;;;;;5.00;4.53;;;;;;;;;;5009269;28;20470;-85
2024/01/07 14:33:25;;;;;;;6.43;4.77;;;;;;;;;;5021858;28;20440;-87
2024/01/07 14:36:09;;;;;;;4.40;4.00;;;;;;;;;;5017896;28;20507;-85
2024/01/07 14:39:02;;;;;;;4.57;4.23;;;;;;;;;;5026561;28;20445;-87
2024/01/07 14:41:47;;;;;;;4.37;3.97;;;;;;;;;;5022480;28;20457;-87
2024/01/07 14:44:38;;;;;;;8.13;3.30;;;;;;;;;;5025284;28;20450;-86
2024/01/07 14:47:22;;;;;;;3.63;3.33;;;;;;;;;;5108817;23;20483;-84
2024/01/07 14:53:45;;;;;;;3.90;3.17;;;;;;;;;;5014488;28;20520;-89
2024/01/07 14:56:25;;;;;;;4.73;3.27;;;;;;;;;;5017763;28;20488;-86
2024/01/07 14:58:57;;;;;;;2.60;2.10;;;;;;;;;;5033796;28;20561;-86
2024/01/07 15:01:48;;;;;;;3.93;3.63;;;;;;;;;;5036021;28;20448;-86
2024/01/07 15:04:28;;;;;;;4.40;3.63;;;;;;;;;;5034649;28;20531;-87
2024/01/07 15:07:48;;;;;;;;;;;;;;;;;;;;;
2024/01/07 15:14:10;;;;;;;;;;;;;;;;;;;;;
2024/01/07 15:17:20;;;;;;;2.73;2.60;;;;;;;;;;5029488;28;20495;-86
2024/01/07 15:31:05;;;;;;;2.50;2.30;;;;;;;;;;4966335;28;20476;-85
2024/01/07 15:37:30;;;;;;;4.10;2.50;;;;;;;;;;4975341;28;20463;-85
2024/01/07 15:40:26;;;;;;;2.60;2.33;;;;;;;;;;4960202;28;20452;-89
2024/01/07 15:47:33;;;;;;;;;;;;;;;;;;;;;
2024/01/07 15:50:37;;;;;;;3.97;2.50;;;;;;;;;;4947951;28;20472;-88
2024/01/07 15:53:31;;;;;;;9.60;3.20;;;;;;;;;;4965598;28;21014;-86
2024/01/07 15:57:05;;;;;;;3.10;2.20;;;;;;;;;;4956616;28;20487;-88
2024/01/07 16:03:37;;;;;;;3.23;2.37;;;;;;;;;;4951927;28;20485;-88
2024/01/07 16:06:33;;;;;;;2.70;2.50;;;;;;;;;;4951157;28;20492;-87
2024/01/07 16:13:02;;;;;;;2.30;1.80;;;;;;;;;;4977930;28;20653;-84
2024/01/07 16:16:29;;;;;;;3.37;2.30;;;;;;;;;;5014788;28;20437;-85
2024/01/07 16:19:10;;;;;;;3.63;2.20;;;;;;;;;;5020521;28;20475;-85
2024/01/07 16:28:25;;;;;;;2.40;2.20;;;;;;;;;;4889766;29;20480;-83
2024/01/07 16:32:04;;;;;;;;;;;;;;;;;;;;;
2024/01/07 16:34:59;;;;;;;2.17;2.07;;;;;;;;;;4827034;29;20510;-84
2024/01/07 16:41:04;;;;;;;2.33;2.13;;;;;;;;;;4861243;29;20467;-87
2024/01/07 16:47:13;;;;;;;2.30;2.10;;;;;;;;;;4939422;29;20527;-83
2024/01/07 16:50:04;;;;;;;2.63;2.43;;;;;;;;;;4924335;29;20480;-84
2024/01/07 16:53:01;;;;;;;2.60;2.40;;;;;;;;;;4909241;28;20506;-85
2024/01/07 16:56:04;;;;;;;;;;;;;;;;;;;;;
2024/01/07 16:58:51;;;;;;;5.83;3.37;;;;;;;;;;4875328;29;20447;-84
2024/01/07 17:05:16;;;;;;;3.33;2.77;;;;;;;;;;4870604;29;20471;-84
2024/01/07 17:11:55;;;;;;;;;;;;;;;;;;;;;
2024/01/07 17:15:00;;;;;;;3.00;2.70;;;;;;;;;;4854146;29;21082;-84
2024/01/07 17:18:06;;;;;;;3.00;2.77;;;;;;;;;;4854019;29;20512;-85
2024/01/07 17:24:10;;;;;;;2.63;2.43;;;;;;;;;;4889338;29;20471;-86
2024/01/07 17:27:11;;;;;;;7.27;3.13;;;;;;;;;;4861563;29;20562;-84
2024/01/07 17:33:13;;;;;;;3.10;2.80;;;;;;;;;;4845058;29;20495;-84
2024/01/07 17:35:50;;;;;;;2.97;2.77;;;;;;;;;;4935238;29;20543;-84
2024/01/07 17:41:59;;;;;;;3.43;3.13;;;;;;;;;;4985450;28;20590;-84
2024/01/07 17:48:03;;;;;;;2.70;2.40;;;;;;;;;;4981280;28;20453;-84
2024/01/07 17:50:43;;;;;;;2.30;2.13;;;;;;;;;;5020306;28;20462;-83
2024/01/07 17:54:01;;;;;;;5.20;3.00;;;;;;;;;;5021804;28;20461;-86
2024/01/07 18:04:04;;;;;;;3.27;2.67;;;;;;;;;;4919475;29;20426;-85
2024/01/07 18:06:54;;;;;;;4.27;3.10;;;;;;;;;;4908896;29;20479;-83
2024/01/07 18:09:56;;;;;;;2.60;2.40;;;;;;;;;;4905603;28;20531;-85
2024/01/07 18:13:09;;;;;;;;;;;;;;;;;;;;;
2024/01/07 18:19:40;;;;;;;3.20;2.90;;;;;;;;;;4861884;29;20432;-86
2024/01/07 18:22:40;;;;;;;5.43;3.00;;;;;;;;;;4899430;29;20471;-83
2024/01/07 18:25:51;;;;;;;2.87;2.67;;;;;;;;;;4891642;29;20455;-84
2024/01/07 18:28:54;;;;;;;4.53;2.97;;;;;;;;;;4975159;22;20566;-86
2024/01/07 18:31:45;;;;;;;2.70;2.50;;;;;;;;;;5015722;28;20511;-87
2024/01/07 18:34:36;;;;;;;2.73;2.53;;;;;;;;;;5053616;28;20586;-85
2024/01/07 18:37:27;;;;;;;3.80;3.27;;;;;;;;;;5157259;23;20489;-83
2024/01/07 18:40:19;;;;;;;3.20;2.87;;;;;;;;;;5025744;28;20448;-85
2024/01/07 18:43:02;;;;;;;4.70;3.53;;;;;;;;;;5015238;28;20459;-85
2024/01/07 18:45:49;;;;;;;3.67;2.50;;;;;;;;;;5000593;28;20445;-83
2024/01/07 18:51:27;;;;;;;3.00;2.77;;;;;;;;;;5005855;28;20422;-84
2024/01/07 18:54:41;;;;;;;3.00;2.80;;;;;;;;;;4993673;28;20528;-85
2024/01/07 18:57:36;;;;;;;;;;;;;;;;;;;;;
2024/01/07 19:00:31;;;;;;;2.70;2.27;;;;;;;;;;5028356;28;20471;-86
2024/01/07 19:09:27;;;;;;;1.70;1.60;;;;;;;;;;828545;26;20774;-84
2024/01/07 19:12:24;;;;;;;2.87;2.03;;;;;;;;;;5032782;28;20649;-86
2024/01/07 19:18:18;;;;;;;3.30;1.67;;;;;;;;;;4991695;28;20505;-83
2024/01/07 19:21:00;;;;;;;3.13;2.67;;;;;;;;;;4971233;28;20485;-85
2024/01/07 19:24:26;;;;;;;2.60;2.27;;;;;;;;;;4959111;28;20532;-83
2024/01/07 19:27:16;;;;;;;1.70;1.60;;;;;;;;;;4942051;28;20510;-86
2024/01/07 19:30:00;;;;;;;1.83;1.73;;;;;;;;;;4969859;28;20543;-82
2024/01/07 19:33:42;;;;;;;3.00;1.97;;;;;;;;;;4959125;28;20485;-85
2024/01/07 19:43:13;;;;;;;1.53;1.43;;;;;;;;;;4981835;28;20520;-84
2024/01/07 19:46:36;;;;;;;4.60;1.93;;;;;;;;;;5017891;28;20476;-86
2024/01/07 19:49:20;;;;;;;1.90;1.50;;;;;;;;;;5000177;28;20473;-82
2024/01/07 19:52:25;;;;;;;3.23;1.80;;;;;;;;;;5002961;28;20485;-83
2024/01/07 19:55:05;;;;;;;2.77;1.87;;;;;;;;;;5021006;28;21138;-86
2024/01/07 19:58:05;;;;;;;4.73;2.30;;;;;;;;;;4995423;28;20478;-83
2024/01/07 20:01:08;;;;;;;2.30;2.10;;;;;;;;;;4989033;28;20461;-82
2024/01/07 20:04:09;;;;;;;1.90;1.80;;;;;;;;;;5007091;28;20454;-86
2024/01/07 20:07:29;;;;;;;3.60;2.13;;;;;;;;;;4923461;28;21518;-85
2024/01/07 20:10:28;;;;;;;2.67;2.50;;;;;;;;;;4943075;28;20463;-85
2024/01/07 20:22:58;;;;;;;;;;;;;;;;;;;;;
2024/01/07 20:26:13;;;;;;;2.60;1.90;;;;;;;;;;5002621;28;20448;-85
2024/01/07 21:07:14;;;;;;;2.80;2.60;;;;;;;;;;5022271;28;20477;-86
2024/01/07 21:13:31;;;;;;;2.93;2.50;;;;;;;;;;5002274;28;20480;-85
2024/01/07 21:17:00;;;;;;;;;;;;;;;;;;;;;
2024/01/07 21:19:55;;;;;;;3.33;2.70;;;;;;;;;;4998940;28;20498;-84
2024/01/07 21:25:50;;;;;;;4.43;2.37;;;;;;;;;;4932796;29;20453;-86
2024/01/07 21:32:29;;;;;;;2.93;2.03;;;;;;;;;;5024957;28;20426;-86
2024/01/07 21:46:36;;;;;;;;;;;;;;;;;;;;;
2024/01/07 21:49:26;;;;;;;5.67;2.70;;;;;;;;;;4925143;28;20482;-85
2024/01/07 21:59:45;;;;;;;2.50;2.10;;;;;;;;;;4955332;28;20448;-85
2024/01/07 22:02:40;;;;;;;2.67;2.47;;;;;;;;;;4933085;28;20433;-85
2024/01/07 22:06:06;;;;;;;2.77;2.57;;;;;;;;;;4925622;29;20508;-85
2024/01/07 22:09:06;;;;;;;2.07;1.97;;;;;;;;;;4930239;29;20488;-84
2024/01/07 22:12:00;;;;;;;2.10;1.90;;;;;;;;;;4903020;28;22183;-86
2024/01/07 22:15:28;;;;;;;;;;;;;;;;;;;;;
2024/01/07 22:22:19;;;;;;;4.03;2.20;;;;;;;;;;4956133;28;20447;-86
2024/01/07 22:28:04;;;;;;;2.40;1.90;;;;;;;;;;4965039;28;20494;-86
2024/01/07 22:30:57;;;;;;;2.60;2.00;;;;;;;;;;4956563;28;20546;-86
2024/01/07 22:33:59;;;;;;;4.03;1.97;;;;;;;;;;4950124;28;20581;-86
2024/01/07 22:36:47;;;;;;;1.63;1.53;;;;;;;;;;4963607;28;20462;-85
2024/01/07 22:39:52;;;;;;;;;;;;;;;;;;;;;
2024/01/07 22:42:51;;;;;;;1.60;1.50;;;;;;;;;;4966794;28;20454;-84
2024/01/07 22:48:52;;;;;;;2.10;1.80;;;;;;;;;;4957508;28;20599;-85
2024/01/07 22:51:47;;;;;;;1.43;1.33;;;;;;;;;;4944549;28;20829;-84
2024/01/07 22:54:34;;;;;;;2.93;2.20;;;;;;;;;;4967615;28;20458;-85
2024/01/07 22:57:16;;;;;;;3.10;1.50;;;;;;;;;;4968158;28;20499;-86
2024/01/07 23:00:25;;;;;;;;;;;;;;;;;;;;;
2024/01/07 23:03:21;;;;;;;3.40;1.40;;;;;;;;;;4970873;28;20702;-85
2024/01/07 23:06:00;;;;;;;1.50;1.40;;;;;;;;;;5025016;28;20450;-86
2024/01/07 23:09:13;;;;;;;4.23;2.10;;;;;;;;;;5004425;28;20554;-86
2024/01/07 23:11:53;;;;;;;2.57;1.80;;;;;;;;;;4976122;28;20484;-87
2024/01/07 23:14:46;;;;;;;3.30;2.03;;;;;;;;;;5016275;28;20533;-85
2024/01/07 23:17:34;;;;;;;2.20;2.00;;;;;;;;;;5007755;28;21189;-86
2024/01/07 23:20:40;;;;;;;2.20;2.00;;;;;;;;;;5002527;28;20435;-85
2024/01/07 23:23:22;;;;;;;2.33;2.17;;;;;;;;;;5003180;28;20943;-85
2024/01/07 23:25:56;;;;;;;3.30;2.63;;;;;;;;;;5004029;28;20478;-87
2024/01/07 23:28:34;;;;;;;2.53;2.30;;;;;;;;;;5003468;28;20501;-84
2024/01/07 23:31:29;;;;;;;4.53;2.10;;;;;;;;;;5001705;28;20454;-87
2024/01/07 23:34:39;;;;;;;;;;;;;;;;;;;;;
2024/01/07 23:37:40;;;;;;;2.90;2.37;;;;;;;;;;5001158;28;20484;-84
2024/01/07 23:40:31;;;;;;;2.20;2.00;;;;;;;;;;5001827;28;20465;-85
2024/01/07 23:43:26;;;;;;;2.83;2.57;;;;;;;;;;4999928;28;20492;-86
2024/01/07 23:53:03;;;;;;;3.83;2.50;;;;;;;;;;4991299;28;21010;-84
2024/01/07 23:56:03;;;;;;;2.50;2.30;;;;;;;;;;5001884;28;21121;-86
2024/01/07 23:58:43;;;;;;;3.87;2.77;;;;;;;;;;5003664;28;20488;-83
